sensor_id;sensor_type;location;lat;lon;timestamp;pressure;altitude;pressure_sealevel;temperature;humidity
15050;BME280;7622;42.724;23.250;2022-07-29T00:00:05;94883.63;;;20.30;100.00
15050;BME280;7622;42.724;23.250;2022-07-29T00:02:34;94895.44;;;20.40;100.00
15050;BME280;7622;42.724;23.250;2022-07-29T00:05:07;94889.44;;;20.60;100.00
15050;BME280;7622;42.724;23.250;2022-07-29T00:07:35;94893.41;;;20.36;100.00
15050;BME280;7622;42.724;23.250;2022-07-29T00:10:03;94897.25;;;20.40;100.00
15050;BME280;7622;42.724;23.250;2022-07-29T00:12:30;94887.00;;;20.11;100.00
15050;BME280;7622;42.724;23.250;2022-07-29T00:14:57;94887.16;;;20.02;100.00
15050;BME280;7622;42.724;23.250;2022-07-29T00:17:24;94884.44;;;19.89;100.00
15050;BME280;7622;42.724;23.250;2022-07-29T00:19:51;94886.66;;;19.86;100.00
15050;BME280;7622;42.724;23.250;2022-07-29T00:22:20;94881.69;;;20.04;100.00
15050;BME280;7622;42.724;23.250;2022-07-29T00:24:48;94883.00;;;19.87;100.00
15050;BME280;7622;42.724;23.250;2022-07-29T00:27:15;94896.59;;;19.84;100.00
15050;BME280;7622;42.724;23.250;2022-07-29T00:29:41;94901.28;;;19.88;100.00
15050;BME280;7622;42.724;23.250;2022-07-29T00:32:08;94900.47;;;19.88;100.00
15050;BME280;7622;42.724;23.250;2022-07-29T00:34:35;94909.88;;;19.69;100.00
15050;BME280;7622;42.724;23.250;2022-07-29T00:37:20;94911.41;;;19.57;100.00
15050;BME280;7622;42.724;23.250;2022-07-29T00:39:47;94900.91;;;19.36;100.00
15050;BME280;7622;42.724;23.250;2022-07-29T00:42:16;94903.19;;;19.17;100.00
15050;BME280;7622;42.724;23.250;2022-07-29T00:44:45;94904.50;;;19.07;100.00
15050;BME280;7622;42.724;23.250;2022-07-29T00:47:13;94910.59;;;18.86;100.00
15050;BME280;7622;42.724;23.250;2022-07-29T00:49:41;94902.06;;;18.63;100.00
15050;BME280;7622;42.724;23.250;2022-07-29T00:52:09;94901.06;;;18.64;100.00
15050;BME280;7622;42.724;23.250;2022-07-29T00:54:39;94901.06;;;18.64;100.00
15050;BME280;7622;42.724;23.250;2022-07-29T00:57:07;94887.34;;;18.54;100.00
15050;BME280;7622;42.724;23.250;2022-07-29T00:59:34;94893.91;;;18.58;100.00
15050;BME280;7622;42.724;23.250;2022-07-29T01:02:01;94895.72;;;18.57;100.00
15050;BME280;7622;42.724;23.250;2022-07-29T01:04:28;94878.13;;;18.79;100.00
15050;BME280;7622;42.724;23.250;2022-07-29T01:06:56;94880.50;;;18.95;100.00
15050;BME280;7622;42.724;23.250;2022-07-29T01:09:23;94875.78;;;19.12;100.00
15050;BME280;7622;42.724;23.250;2022-07-29T01:11:52;94874.09;;;19.04;100.00
15050;BME280;7622;42.724;23.250;2022-07-29T01:14:21;94875.03;;;18.97;100.00
15050;BME280;7622;42.724;23.250;2022-07-29T01:16:51;94846.16;;;18.82;100.00
15050;BME280;7622;42.724;23.250;2022-07-29T01:19:33;94871.59;;;18.96;100.00
15050;BME280;7622;42.724;23.250;2022-07-29T01:22:25;94865.84;;;19.07;100.00
15050;BME280;7622;42.724;23.250;2022-07-29T01:25:03;94862.44;;;19.13;100.00
15050;BME280;7622;42.724;23.250;2022-07-29T01:27:47;94860.13;;;19.04;100.00
15050;BME280;7622;42.724;23.250;2022-07-29T01:30:19;94860.94;;;19.04;100.00
15050;BME280;7622;42.724;23.250;2022-07-29T01:32:50;94848.00;;;19.09;100.00
15050;BME280;7622;42.724;23.250;2022-07-29T01:35:23;94837.41;;;19.03;100.00
15050;BME280;7622;42.724;23.250;2022-07-29T01:37:55;94860.66;;;19.20;100.00
15050;BME280;7622;42.724;23.250;2022-07-29T01:40:27;94839.91;;;19.11;100.00
15050;BME280;7622;42.724;23.250;2022-07-29T01:42:57;94851.00;;;19.27;100.00
15050;BME280;7622;42.724;23.250;2022-07-29T01:45:28;94856.34;;;19.41;100.00
15050;BME280;7622;42.724;23.250;2022-07-29T01:48:00;94855.13;;;19.43;100.00
15050;BME280;7622;42.724;23.250;2022-07-29T01:50:31;94857.59;;;19.45;100.00
15050;BME280;7622;42.724;23.250;2022-07-29T01:53:02;94861.72;;;19.54;100.00
15050;BME280;7622;42.724;23.250;2022-07-29T01:55:34;94859.16;;;19.39;100.00
15050;BME280;7622;42.724;23.250;2022-07-29T01:58:03;94853.84;;;19.33;100.00
15050;BME280;7622;42.724;23.250;2022-07-29T02:00:33;94857.31;;;19.33;100.00
15050;BME280;7622;42.724;23.250;2022-07-29T02:03:04;94856.13;;;19.36;100.00
15050;BME280;7622;42.724;23.250;2022-07-29T02:05:32;94850.84;;;19.36;100.00
15050;BME280;7622;42.724;23.250;2022-07-29T02:08:01;94845.31;;;19.31;100.00
15050;BME280;7622;42.724;23.250;2022-07-29T02:10:30;94849.34;;;19.26;100.00
15050;BME280;7622;42.724;23.250;2022-07-29T02:12:58;94843.69;;;19.29;100.00
15050;BME280;7622;42.724;23.250;2022-07-29T02:15:28;94852.19;;;19.25;100.00
15050;BME280;7622;42.724;23.250;2022-07-29T02:18:01;94844.59;;;19.43;100.00
15050;BME280;7622;42.724;23.250;2022-07-29T02:20:29;94843.13;;;19.62;100.00
15050;BME280;7622;42.724;23.250;2022-07-29T02:22:58;94840.03;;;19.52;100.00
15050;BME280;7622;42.724;23.250;2022-07-29T02:25:26;94838.66;;;19.56;100.00
15050;BME280;7622;42.724;23.250;2022-07-29T02:27:55;94828.88;;;19.50;100.00
15050;BME280;7622;42.724;23.250;2022-07-29T02:30:22;94828.09;;;19.56;100.00
15050;BME280;7622;42.724;23.250;2022-07-29T02:32:51;94826.69;;;19.32;100.00
15050;BME280;7622;42.724;23.250;2022-07-29T02:35:20;94820.63;;;19.32;100.00
15050;BME280;7622;42.724;23.250;2022-07-29T02:37:48;94825.63;;;19.48;100.00
15050;BME280;7622;42.724;23.250;2022-07-29T02:40:41;94833.66;;;19.74;100.00
15050;BME280;7622;42.724;23.250;2022-07-29T02:43:10;94838.53;;;19.71;100.00
15050;BME280;7622;42.724;23.250;2022-07-29T02:45:37;94829.56;;;19.65;100.00
15050;BME280;7622;42.724;23.250;2022-07-29T02:48:07;94820.28;;;19.41;100.00
15050;BME280;7622;42.724;23.250;2022-07-29T02:50:41;94809.94;;;19.40;100.00
15050;BME280;7622;42.724;23.250;2022-07-29T02:53:15;94790.78;;;19.24;100.00
15050;BME280;7622;42.724;23.250;2022-07-29T02:55:46;94823.25;;;19.59;100.00
15050;BME280;7622;42.724;23.250;2022-07-29T02:58:21;94829.25;;;19.47;100.00
15050;BME280;7622;42.724;23.250;2022-07-29T03:00:55;94818.25;;;19.43;100.00
15050;BME280;7622;42.724;23.250;2022-07-29T03:03:25;94818.34;;;19.50;100.00
15050;BME280;7622;42.724;23.250;2022-07-29T03:05:57;94827.66;;;19.24;100.00
15050;BME280;7622;42.724;23.250;2022-07-29T03:08:30;94822.53;;;19.16;100.00
15050;BME280;7622;42.724;23.250;2022-07-29T03:11:00;94816.34;;;19.03;100.00
15050;BME280;7622;42.724;23.250;2022-07-29T03:13:29;94800.09;;;18.93;100.00
15050;BME280;7622;42.724;23.250;2022-07-29T03:15:57;94833.66;;;19.12;100.00
15050;BME280;7622;42.724;23.250;2022-07-29T03:18:24;94833.00;;;19.10;100.00
15050;BME280;7622;42.724;23.250;2022-07-29T03:20:52;94834.38;;;18.99;100.00
15050;BME280;7622;42.724;23.250;2022-07-29T03:23:21;94840.28;;;18.80;100.00
15050;BME280;7622;42.724;23.250;2022-07-29T03:25:49;94837.59;;;18.73;100.00
15050;BME280;7622;42.724;23.250;2022-07-29T03:28:16;94836.03;;;18.79;100.00
15050;BME280;7622;42.724;23.250;2022-07-29T03:30:44;94833.84;;;19.10;100.00
15050;BME280;7622;42.724;23.250;2022-07-29T03:33:11;94838.72;;;19.13;100.00
15050;BME280;7622;42.724;23.250;2022-07-29T03:35:37;94836.69;;;19.15;100.00
15050;BME280;7622;42.724;23.250;2022-07-29T03:38:04;94839.53;;;19.14;100.00
15050;BME280;7622;42.724;23.250;2022-07-29T03:40:35;94841.50;;;19.05;100.00
15050;BME280;7622;42.724;23.250;2022-07-29T03:43:05;94837.81;;;19.27;100.00
15050;BME280;7622;42.724;23.250;2022-07-29T03:45:34;94842.13;;;19.35;100.00
15050;BME280;7622;42.724;23.250;2022-07-29T03:48:04;94849.25;;;19.41;100.00
15050;BME280;7622;42.724;23.250;2022-07-29T03:50:32;94849.06;;;19.43;100.00
15050;BME280;7622;42.724;23.250;2022-07-29T03:53:00;94848.97;;;19.57;100.00
15050;BME280;7622;42.724;23.250;2022-07-29T03:55:29;94843.94;;;19.62;100.00
15050;BME280;7622;42.724;23.250;2022-07-29T03:58:01;94853.75;;;19.75;100.00
15050;BME280;7622;42.724;23.250;2022-07-29T04:00:28;94854.78;;;19.81;100.00
15050;BME280;7622;42.724;23.250;2022-07-29T04:02:56;94848.97;;;19.98;100.00
15050;BME280;7622;42.724;23.250;2022-07-29T04:05:23;94850.69;;;20.19;100.00
15050;BME280;7622;42.724;23.250;2022-07-29T04:07:50;94840.25;;;20.39;100.00
15050;BME280;7622;42.724;23.250;2022-07-29T04:10:18;94843.97;;;20.77;100.00
15050;BME280;7622;42.724;23.250;2022-07-29T04:12:45;94838.88;;;20.82;100.00
15050;BME280;7622;42.724;23.250;2022-07-29T04:15:13;94839.94;;;21.08;100.00
15050;BME280;7622;42.724;23.250;2022-07-29T04:17:40;94820.63;;;21.14;100.00
15050;BME280;7622;42.724;23.250;2022-07-29T04:20:08;94835.47;;;21.15;100.00
15050;BME280;7622;42.724;23.250;2022-07-29T04:22:40;94837.09;;;21.29;100.00
15050;BME280;7622;42.724;23.250;2022-07-29T04:25:09;94843.19;;;21.23;100.00
15050;BME280;7622;42.724;23.250;2022-07-29T04:27:36;94842.78;;;21.39;100.00
15050;BME280;7622;42.724;23.250;2022-07-29T04:30:24;94844.81;;;21.50;100.00
15050;BME280;7622;42.724;23.250;2022-07-29T04:32:51;94841.91;;;21.65;100.00
15050;BME280;7622;42.724;23.250;2022-07-29T04:35:18;94852.09;;;21.61;100.00
15050;BME280;7622;42.724;23.250;2022-07-29T04:37:45;94848.59;;;21.74;100.00
15050;BME280;7622;42.724;23.250;2022-07-29T04:40:12;94853.78;;;21.30;100.00
15050;BME280;7622;42.724;23.250;2022-07-29T04:42:39;94854.19;;;21.20;100.00
15050;BME280;7622;42.724;23.250;2022-07-29T04:45:06;94848.50;;;21.36;100.00
15050;BME280;7622;42.724;23.250;2022-07-29T04:47:34;94861.50;;;21.18;100.00
15050;BME280;7622;42.724;23.250;2022-07-29T04:50:01;94863.09;;;21.06;100.00
15050;BME280;7622;42.724;23.250;2022-07-29T04:52:28;94865.13;;;21.10;100.00
15050;BME280;7622;42.724;23.250;2022-07-29T04:54:55;94869.41;;;21.18;100.00
15050;BME280;7622;42.724;23.250;2022-07-29T04:57:22;94865.34;;;21.15;100.00
15050;BME280;7622;42.724;23.250;2022-07-29T04:59:49;94858.00;;;21.11;100.00
15050;BME280;7622;42.724;23.250;2022-07-29T05:02:16;94861.47;;;20.98;100.00
15050;BME280;7622;42.724;23.250;2022-07-29T05:04:44;94865.53;;;20.88;100.00
15050;BME280;7622;42.724;23.250;2022-07-29T05:07:11;94864.56;;;21.21;100.00
15050;BME280;7622;42.724;23.250;2022-07-29T05:09:38;94867.78;;;21.37;100.00
15050;BME280;7622;42.724;23.250;2022-07-29T05:12:05;94853.13;;;21.54;100.00
15050;BME280;7622;42.724;23.250;2022-07-29T05:14:32;94871.16;;;21.96;100.00
15050;BME280;7622;42.724;23.250;2022-07-29T05:16:59;94864.63;;;21.99;100.00
15050;BME280;7622;42.724;23.250;2022-07-29T05:19:26;94869.72;;;22.00;100.00
15050;BME280;7622;42.724;23.250;2022-07-29T05:21:54;94867.44;;;22.17;100.00
15050;BME280;7622;42.724;23.250;2022-07-29T05:24:21;94869.97;;;22.44;100.00
15050;BME280;7622;42.724;23.250;2022-07-29T05:26:47;94870.63;;;22.77;100.00
15050;BME280;7622;42.724;23.250;2022-07-29T05:29:14;94872.91;;;22.67;100.00
15050;BME280;7622;42.724;23.250;2022-07-29T05:31:41;94871.16;;;22.92;100.00
15050;BME280;7622;42.724;23.250;2022-07-29T05:34:08;94873.53;;;23.00;100.00
15050;BME280;7622;42.724;23.250;2022-07-29T05:36:34;94867.69;;;23.16;100.00
15050;BME280;7622;42.724;23.250;2022-07-29T05:39:02;94868.44;;;23.24;100.00
15050;BME280;7622;42.724;23.250;2022-07-29T05:41:31;94874.19;;;23.21;100.00
15050;BME280;7622;42.724;23.250;2022-07-29T05:43:58;94876.41;;;22.99;100.00
15050;BME280;7622;42.724;23.250;2022-07-29T05:46:25;94875.72;;;23.35;100.00
15050;BME280;7622;42.724;23.250;2022-07-29T05:48:51;94889.13;;;23.89;100.00
15050;BME280;7622;42.724;23.250;2022-07-29T05:51:18;94886.00;;;23.74;100.00
15050;BME280;7622;42.724;23.250;2022-07-29T05:53:45;94886.31;;;24.03;100.00
15050;BME280;7622;42.724;23.250;2022-07-29T05:56:13;94876.97;;;24.18;100.00
15050;BME280;7622;42.724;23.250;2022-07-29T05:58:40;94879.34;;;24.75;100.00
15050;BME280;7622;42.724;23.250;2022-07-29T06:01:07;94875.84;;;25.57;100.00
15050;BME280;7622;42.724;23.250;2022-07-29T06:03:33;94832.22;;;25.46;100.00
15050;BME280;7622;42.724;23.250;2022-07-29T06:06:03;94889.75;;;25.94;100.00
15050;BME280;7622;42.724;23.250;2022-07-29T06:08:31;94863.47;;;26.09;100.00
15050;BME280;7622;42.724;23.250;2022-07-29T06:10:59;94883.38;;;25.95;100.00
15050;BME280;7622;42.724;23.250;2022-07-29T06:13:27;94834.31;;;25.33;100.00
15050;BME280;7622;42.724;23.250;2022-07-29T06:15:54;94877.03;;;25.61;100.00
15050;BME280;7622;42.724;23.250;2022-07-29T06:18:20;94873.97;;;26.16;100.00
15050;BME280;7622;42.724;23.250;2022-07-29T06:20:49;94890.56;;;26.30;100.00
15050;BME280;7622;42.724;23.250;2022-07-29T06:23:17;94889.28;;;26.72;100.00
15050;BME280;7622;42.724;23.250;2022-07-29T06:25:47;94886.09;;;26.87;100.00
15050;BME280;7622;42.724;23.250;2022-07-29T06:28:17;94878.50;;;27.24;100.00
15050;BME280;7622;42.724;23.250;2022-07-29T06:30:46;94876.13;;;27.72;100.00
15050;BME280;7622;42.724;23.250;2022-07-29T06:33:16;94872.28;;;27.35;100.00
15050;BME280;7622;42.724;23.250;2022-07-29T06:35:44;94879.34;;;27.74;100.00
15050;BME280;7622;42.724;23.250;2022-07-29T06:38:12;94873.25;;;27.45;100.00
15050;BME280;7622;42.724;23.250;2022-07-29T06:40:41;94879.38;;;27.46;100.00
15050;BME280;7622;42.724;23.250;2022-07-29T06:43:27;94875.97;;;28.01;100.00
15050;BME280;7622;42.724;23.250;2022-07-29T06:46:00;94872.06;;;28.25;100.00
15050;BME280;7622;42.724;23.250;2022-07-29T06:48:28;94875.13;;;27.78;100.00
15050;BME280;7622;42.724;23.250;2022-07-29T06:50:55;94875.19;;;27.50;100.00
15050;BME280;7622;42.724;23.250;2022-07-29T06:53:23;94870.19;;;27.70;100.00
15050;BME280;7622;42.724;23.250;2022-07-29T06:55:49;94874.41;;;28.43;100.00
15050;BME280;7622;42.724;23.250;2022-07-29T06:58:16;94866.91;;;28.02;100.00
15050;BME280;7622;42.724;23.250;2022-07-29T07:00:45;94875.53;;;28.26;100.00
15050;BME280;7622;42.724;23.250;2022-07-29T07:03:14;94871.09;;;29.02;100.00
15050;BME280;7622;42.724;23.250;2022-07-29T07:05:40;94863.16;;;29.39;100.00
15050;BME280;7622;42.724;23.250;2022-07-29T07:08:07;94867.03;;;29.26;100.00
15050;BME280;7622;42.724;23.250;2022-07-29T07:10:34;94855.19;;;29.44;100.00
15050;BME280;7622;42.724;23.250;2022-07-29T07:13:02;94846.00;;;29.71;95.28
15050;BME280;7622;42.724;23.250;2022-07-29T07:15:29;94858.56;;;29.66;100.00
15050;BME280;7622;42.724;23.250;2022-07-29T07:17:56;94859.53;;;29.55;99.73
15050;BME280;7622;42.724;23.250;2022-07-29T07:20:25;94853.59;;;29.85;85.69
15050;BME280;7622;42.724;23.250;2022-07-29T07:22:52;94862.25;;;29.60;85.84
15050;BME280;7622;42.724;23.250;2022-07-29T07:25:19;94864.06;;;29.86;83.03
15050;BME280;7622;42.724;23.250;2022-07-29T07:27:45;94870.91;;;30.09;79.22
15050;BME280;7622;42.724;23.250;2022-07-29T07:30:12;94854.16;;;29.92;80.57
15050;BME280;7622;42.724;23.250;2022-07-29T07:32:39;94856.84;;;30.44;79.16
15050;BME280;7622;42.724;23.250;2022-07-29T07:35:08;94864.31;;;30.32;75.30
15050;BME280;7622;42.724;23.250;2022-07-29T07:37:38;94858.66;;;30.90;72.08
15050;BME280;7622;42.724;23.250;2022-07-29T07:40:06;94859.50;;;31.06;70.50
15050;BME280;7622;42.724;23.250;2022-07-29T07:42:33;94857.38;;;31.13;72.01
15050;BME280;7622;42.724;23.250;2022-07-29T07:45:00;94864.09;;;31.21;69.20
15050;BME280;7622;42.724;23.250;2022-07-29T07:47:27;94862.75;;;31.08;68.78
15050;BME280;7622;42.724;23.250;2022-07-29T07:49:53;94860.88;;;31.34;67.08
15050;BME280;7622;42.724;23.250;2022-07-29T07:52:21;94832.91;;;31.00;68.64
15050;BME280;7622;42.724;23.250;2022-07-29T07:54:50;94849.09;;;31.86;66.78
15050;BME280;7622;42.724;23.250;2022-07-29T07:57:16;94857.13;;;31.55;65.13
15050;BME280;7622;42.724;23.250;2022-07-29T07:59:43;94855.50;;;31.34;66.23
15050;BME280;7622;42.724;23.250;2022-07-29T08:02:10;94849.09;;;31.60;64.75
15050;BME280;7622;42.724;23.250;2022-07-29T08:04:37;94845.84;;;31.84;63.83
15050;BME280;7622;42.724;23.250;2022-07-29T08:07:06;94843.16;;;31.48;66.81
15050;BME280;7622;42.724;23.250;2022-07-29T08:09:35;94840.69;;;30.91;68.65
15050;BME280;7622;42.724;23.250;2022-07-29T08:12:04;94848.53;;;31.23;66.95
15050;BME280;7622;42.724;23.250;2022-07-29T08:14:31;94845.81;;;31.03;67.29
15050;BME280;7622;42.724;23.250;2022-07-29T08:16:58;94856.84;;;31.21;66.94
15050;BME280;7622;42.724;23.250;2022-07-29T08:19:25;94859.25;;;31.13;68.19
15050;BME280;7622;42.724;23.250;2022-07-29T08:21:52;94855.97;;;30.90;69.08
15050;BME280;7622;42.724;23.250;2022-07-29T08:24:20;94854.44;;;31.40;66.13
15050;BME280;7622;42.724;23.250;2022-07-29T08:27:05;94856.59;;;31.38;66.77
15050;BME280;7622;42.724;23.250;2022-07-29T08:29:32;94850.72;;;31.61;67.02
15050;BME280;7622;42.724;23.250;2022-07-29T08:31:59;94850.63;;;31.01;68.17
15050;BME280;7622;42.724;23.250;2022-07-29T08:34:26;94853.75;;;30.62;71.52
15050;BME280;7622;42.724;23.250;2022-07-29T08:36:53;94856.25;;;30.84;68.22
15050;BME280;7622;42.724;23.250;2022-07-29T08:39:20;94851.63;;;30.74;69.73
15050;BME280;7622;42.724;23.250;2022-07-29T08:41:47;94841.28;;;31.08;68.04
15050;BME280;7622;42.724;23.250;2022-07-29T08:44:17;94846.91;;;31.22;64.93
15050;BME280;7622;42.724;23.250;2022-07-29T08:46:44;94849.06;;;31.15;65.49
15050;BME280;7622;42.724;23.250;2022-07-29T08:49:11;94850.13;;;31.19;64.11
15050;BME280;7622;42.724;23.250;2022-07-29T08:51:39;94833.50;;;31.57;61.70
15050;BME280;7622;42.724;23.250;2022-07-29T08:54:08;94821.28;;;32.31;58.10
15050;BME280;7622;42.724;23.250;2022-07-29T08:56:35;94843.13;;;32.14;59.40
15050;BME280;7622;42.724;23.250;2022-07-29T08:59:03;94841.53;;;31.93;61.29
15050;BME280;7622;42.724;23.250;2022-07-29T09:01:32;94834.50;;;32.22;58.45
15050;BME280;7622;42.724;23.250;2022-07-29T09:04:01;94834.25;;;32.83;54.66
15050;BME280;7622;42.724;23.250;2022-07-29T09:06:31;94843.69;;;31.91;59.50
15050;BME280;7622;42.724;23.250;2022-07-29T09:09:01;94833.63;;;32.42;58.13
15050;BME280;7622;42.724;23.250;2022-07-29T09:11:28;94829.00;;;32.53;54.83
15050;BME280;7622;42.724;23.250;2022-07-29T09:13:55;94835.13;;;32.63;55.60
15050;BME280;7622;42.724;23.250;2022-07-29T09:16:21;94838.59;;;32.74;54.63
15050;BME280;7622;42.724;23.250;2022-07-29T09:18:49;94828.03;;;33.32;52.27
15050;BME280;7622;42.724;23.250;2022-07-29T09:21:18;94832.16;;;33.14;50.90
15050;BME280;7622;42.724;23.250;2022-07-29T09:24:06;94824.41;;;33.80;48.92
15050;BME280;7622;42.724;23.250;2022-07-29T09:26:36;94832.59;;;33.65;49.27
15050;BME280;7622;42.724;23.250;2022-07-29T09:29:10;94836.78;;;33.08;51.34
15050;BME280;7622;42.724;23.250;2022-07-29T09:31:39;94821.34;;;33.58;48.81
15050;BME280;7622;42.724;23.250;2022-07-29T09:34:08;94807.69;;;33.78;47.80
15050;BME280;7622;42.724;23.250;2022-07-29T09:36:43;94825.81;;;34.49;47.18
15050;BME280;7622;42.724;23.250;2022-07-29T09:39:10;94818.06;;;33.61;48.50
15050;BME280;7622;42.724;23.250;2022-07-29T09:41:47;94823.81;;;33.15;48.62
15050;BME280;7622;42.724;23.250;2022-07-29T09:44:15;94816.88;;;33.43;48.46
15050;BME280;7622;42.724;23.250;2022-07-29T09:46:56;94807.38;;;34.09;46.66
15050;BME280;7622;42.724;23.250;2022-07-29T09:49:26;94811.63;;;34.15;45.19
15050;BME280;7622;42.724;23.250;2022-07-29T09:52:04;94806.59;;;34.32;43.86
15050;BME280;7622;42.724;23.250;2022-07-29T09:54:32;94804.38;;;33.86;44.84
15050;BME280;7622;42.724;23.250;2022-07-29T09:57:03;94802.53;;;33.82;45.40
15050;BME280;7622;42.724;23.250;2022-07-29T09:59:30;94799.09;;;33.42;44.99
15050;BME280;7622;42.724;23.250;2022-07-29T10:01:57;94804.16;;;34.07;44.63
15050;BME280;7622;42.724;23.250;2022-07-29T10:04:36;94797.84;;;34.40;43.31
15050;BME280;7622;42.724;23.250;2022-07-29T10:07:03;94801.28;;;33.69;44.65
15050;BME280;7622;42.724;23.250;2022-07-29T10:09:31;94789.25;;;33.33;46.47
15050;BME280;7622;42.724;23.250;2022-07-29T10:12:09;94787.03;;;33.35;46.97
15050;BME280;7622;42.724;23.250;2022-07-29T10:14:37;94774.03;;;33.99;45.81
15050;BME280;7622;42.724;23.250;2022-07-29T10:17:06;94779.78;;;33.64;46.70
15050;BME280;7622;42.724;23.250;2022-07-29T10:19:35;94795.78;;;33.16;47.57
15050;BME280;7622;42.724;23.250;2022-07-29T10:22:04;94776.56;;;33.62;47.52
15050;BME280;7622;42.724;23.250;2022-07-29T10:24:31;94775.84;;;33.22;47.12
15050;BME280;7622;42.724;23.250;2022-07-29T10:27:00;94778.78;;;33.26;46.78
15050;BME280;7622;42.724;23.250;2022-07-29T10:29:27;94772.09;;;33.18;46.51
15050;BME280;7622;42.724;23.250;2022-07-29T10:35:01;94758.03;;;33.84;45.72
15050;BME280;7622;42.724;23.250;2022-07-29T10:37:40;94763.31;;;33.94;46.07
15050;BME280;7622;42.724;23.250;2022-07-29T10:40:20;94752.56;;;33.89;45.93
15050;BME280;7622;42.724;23.250;2022-07-29T10:43:16;94752.69;;;33.79;45.31
15050;BME280;7622;42.724;23.250;2022-07-29T10:45:45;94742.66;;;34.09;43.97
15050;BME280;7622;42.724;23.250;2022-07-29T10:48:12;94754.81;;;33.82;44.81
15050;BME280;7622;42.724;23.250;2022-07-29T10:51:00;94745.00;;;33.62;45.99
15050;BME280;7622;42.724;23.250;2022-07-29T10:53:47;94757.66;;;33.67;45.91
15050;BME280;7622;42.724;23.250;2022-07-29T10:56:23;94733.91;;;34.17;43.80
15050;BME280;7622;42.724;23.250;2022-07-29T10:59:24;94722.81;;;34.42;42.77
15050;BME280;7622;42.724;23.250;2022-07-29T11:01:52;94737.38;;;34.22;43.99
15050;BME280;7622;42.724;23.250;2022-07-29T11:07:20;94723.63;;;34.19;43.23
15050;BME280;7622;42.724;23.250;2022-07-29T11:10:23;94724.78;;;34.55;42.48
15050;BME280;7622;42.724;23.250;2022-07-29T11:12:51;94718.50;;;34.60;41.17
15050;BME280;7622;42.724;23.250;2022-07-29T11:15:20;94711.31;;;34.13;42.59
15050;BME280;7622;42.724;23.250;2022-07-29T11:18:06;94719.81;;;34.25;43.02
15050;BME280;7622;42.724;23.250;2022-07-29T11:20:38;94706.81;;;33.55;43.93
15050;BME280;7622;42.724;23.250;2022-07-29T11:23:21;94703.72;;;33.43;43.62
15050;BME280;7622;42.724;23.250;2022-07-29T11:26:15;94701.00;;;33.72;43.62
15050;BME280;7622;42.724;23.250;2022-07-29T11:29:02;94713.41;;;33.73;44.03
15050;BME280;7622;42.724;23.250;2022-07-29T11:31:35;94688.56;;;33.47;44.17
15050;BME280;7622;42.724;23.250;2022-07-29T11:34:23;94701.88;;;33.39;44.89
15050;BME280;7622;42.724;23.250;2022-07-29T11:37:15;94724.94;;;33.50;44.57
15050;BME280;7622;42.724;23.250;2022-07-29T11:39:45;94701.50;;;33.21;45.60
15050;BME280;7622;42.724;23.250;2022-07-29T11:42:41;94701.06;;;33.09;45.76
15050;BME280;7622;42.724;23.250;2022-07-29T11:45:09;94695.63;;;33.14;45.73
15050;BME280;7622;42.724;23.250;2022-07-29T11:47:39;94704.47;;;32.86;45.77
15050;BME280;7622;42.724;23.250;2022-07-29T11:50:08;94703.16;;;33.12;45.59
15050;BME280;7622;42.724;23.250;2022-07-29T11:52:36;94699.06;;;33.49;44.62
15050;BME280;7622;42.724;23.250;2022-07-29T11:55:11;94698.66;;;33.37;44.33
15050;BME280;7622;42.724;23.250;2022-07-29T11:57:45;94703.13;;;32.89;45.34
15050;BME280;7622;42.724;23.250;2022-07-29T12:00:21;94688.78;;;32.98;45.67
15050;BME280;7622;42.724;23.250;2022-07-29T12:02:48;94696.53;;;32.71;46.31
15050;BME280;7622;42.724;23.250;2022-07-29T12:05:16;94696.13;;;32.88;46.42
15050;BME280;7622;42.724;23.250;2022-07-29T12:07:43;94700.97;;;32.85;47.02
15050;BME280;7622;42.724;23.250;2022-07-29T12:10:12;94678.63;;;32.90;46.38
15050;BME280;7622;42.724;23.250;2022-07-29T12:12:38;94688.22;;;33.30;46.30
15050;BME280;7622;42.724;23.250;2022-07-29T12:15:13;94677.66;;;33.39;45.69
15050;BME280;7622;42.724;23.250;2022-07-29T12:17:42;94673.69;;;33.55;45.15
15050;BME280;7622;42.724;23.250;2022-07-29T12:20:10;94665.72;;;33.16;46.13
15050;BME280;7622;42.724;23.250;2022-07-29T12:22:40;94686.72;;;32.85;45.97
15050;BME280;7622;42.724;23.250;2022-07-29T12:25:12;94674.72;;;33.01;45.37
15050;BME280;7622;42.724;23.250;2022-07-29T12:27:43;94691.91;;;33.10;46.08
15050;BME280;7622;42.724;23.250;2022-07-29T12:30:11;94697.31;;;32.66;46.50
15050;BME280;7622;42.724;23.250;2022-07-29T12:32:40;94678.25;;;32.68;45.94
15050;BME280;7622;42.724;23.250;2022-07-29T12:35:10;94662.19;;;32.53;46.17
15050;BME280;7622;42.724;23.250;2022-07-29T12:37:39;94674.19;;;33.04;46.02
15050;BME280;7622;42.724;23.250;2022-07-29T12:40:08;94665.97;;;33.19;45.05
15050;BME280;7622;42.724;23.250;2022-07-29T12:42:36;94668.56;;;33.30;43.82
15050;BME280;7622;42.724;23.250;2022-07-29T12:45:05;94666.22;;;33.23;43.87
15050;BME280;7622;42.724;23.250;2022-07-29T12:47:32;94661.22;;;33.35;44.15
15050;BME280;7622;42.724;23.250;2022-07-29T12:50:10;94660.59;;;32.85;43.96
15050;BME280;7622;42.724;23.250;2022-07-29T12:52:37;94660.50;;;33.30;43.29
15050;BME280;7622;42.724;23.250;2022-07-29T12:55:05;94653.75;;;33.32;43.09
15050;BME280;7622;42.724;23.250;2022-07-29T12:57:32;94652.47;;;33.25;43.11
15050;BME280;7622;42.724;23.250;2022-07-29T13:00:13;94643.56;;;32.95;43.57
15050;BME280;7622;42.724;23.250;2022-07-29T13:02:41;94640.63;;;32.92;44.19
15050;BME280;7622;42.724;23.250;2022-07-29T13:05:10;94644.75;;;32.84;44.98
15050;BME280;7622;42.724;23.250;2022-07-29T13:07:38;94631.78;;;32.91;45.34
15050;BME280;7622;42.724;23.250;2022-07-29T13:10:14;94638.41;;;32.99;43.93
15050;BME280;7622;42.724;23.250;2022-07-29T13:13:03;94630.97;;;33.14;43.80
15050;BME280;7622;42.724;23.250;2022-07-29T13:15:31;94633.47;;;32.82;44.76